createdAt,value
2022-11-06T00:01:54.054Z,18.04
2022-11-06T00:05:16.053Z,18.00
2022-11-06T00:08:28.004Z,18.03
2022-11-06T00:11:30.803Z,17.99
2022-11-06T00:14:32.785Z,17.98
2022-11-06T00:17:35.719Z,17.93
2022-11-06T00:20:37.860Z,17.93
2022-11-06T00:23:40.472Z,18.02
2022-11-06T00:26:43.263Z,17.92
2022-11-06T00:29:45.550Z,17.98
2022-11-06T00:32:48.019Z,17.92
2022-11-06T00:35:50.104Z,17.92
2022-11-06T00:38:56.238Z,17.97
2022-11-06T00:41:58.289Z,18.02
2022-11-06T00:45:03.760Z,17.83
2022-11-06T00:48:06.152Z,18.00
2022-11-06T00:51:13.049Z,17.99
2022-11-06T00:54:15.268Z,17.93
2022-11-06T00:57:17.355Z,17.96
2022-11-06T01:00:20.651Z,17.87
2022-11-06T01:03:22.775Z,17.91
2022-11-06T01:06:28.052Z,17.89
2022-11-06T01:09:30.281Z,17.92
2022-11-06T01:12:33.791Z,17.90
2022-11-06T01:15:36.703Z,17.84
2022-11-06T01:18:40.381Z,17.80
2022-11-06T01:21:44.593Z,17.77
2022-11-06T01:24:46.798Z,17.85
2022-11-06T01:27:48.909Z,17.83
2022-11-06T01:30:51.149Z,17.71
2022-11-06T01:33:54.694Z,17.78
2022-11-06T01:36:56.786Z,17.74
2022-11-06T01:39:58.850Z,17.74
2022-11-06T01:43:00.939Z,17.71
2022-11-06T01:46:02.970Z,17.67
2022-11-06T01:49:13.420Z,17.74
2022-11-06T01:52:16.571Z,17.68
2022-11-06T01:55:26.257Z,17.65
2022-11-06T01:58:32.892Z,17.64
2022-11-06T02:01:35.098Z,17.68
2022-11-06T02:04:48.379Z,17.67
2022-11-06T02:07:51.084Z,17.69
2022-11-06T02:10:53.571Z,17.61
2022-11-06T02:14:32.300Z,17.05
2022-11-06T02:18:01.391Z,17.67
2022-11-06T02:21:12.332Z,17.64
2022-11-06T02:24:54.165Z,17.62
2022-11-06T02:28:04.352Z,17.63
2022-11-06T02:31:16.813Z,17.57
2022-11-06T02:34:21.326Z,17.63
2022-11-06T02:37:34.149Z,17.62
2022-11-06T02:40:42.567Z,17.66
2022-11-06T02:43:48.571Z,17.44
2022-11-06T02:47:01.763Z,17.63
2022-11-06T02:50:11.320Z,17.54
2022-11-06T02:53:15.614Z,17.56
2022-11-06T02:56:25.902Z,17.41
2022-11-06T02:59:43.685Z,17.36
2022-11-06T03:03:01.107Z,17.16
2022-11-06T03:06:10.983Z,16.79
2022-11-06T03:09:25.831Z,16.55
2022-11-06T03:12:34.605Z,16.44
2022-11-06T03:15:57.982Z,16.39
2022-11-06T03:19:26.356Z,16.36
2022-11-06T03:22:31.281Z,16.47
2022-11-06T03:25:53.343Z,16.43
2022-11-06T03:29:05.123Z,16.38
2022-11-06T03:32:19.385Z,16.40
2022-11-06T03:35:31.410Z,16.30
2022-11-06T03:38:44.374Z,16.25
2022-11-06T03:41:52.878Z,16.34
2022-11-06T03:44:56.828Z,16.30
2022-11-06T03:48:12.654Z,16.19
2022-11-06T03:51:40.911Z,16.19
2022-11-06T03:54:49.764Z,16.11
2022-11-06T03:58:08.739Z,16.18
2022-11-06T04:01:13.575Z,16.22
2022-11-06T04:04:22.110Z,16.15
2022-11-06T04:07:30.280Z,16.19
2022-11-06T04:10:52.743Z,16.04
2022-11-06T04:14:01.134Z,16.13
2022-11-06T04:17:07.488Z,16.11
2022-11-06T04:20:36.719Z,16.04
2022-11-06T04:24:12.614Z,16.06
2022-11-06T04:27:38.997Z,16.13
2022-11-06T04:30:55.975Z,16.03
2022-11-06T04:34:14.370Z,16.14
2022-11-06T04:37:25.666Z,16.15
2022-11-06T04:41:02.698Z,16.13
2022-11-06T04:44:11.093Z,16.03
2022-11-06T04:47:17.621Z,16.13
2022-11-06T04:50:22.420Z,16.12
2022-11-06T04:53:26.137Z,16.15
2022-11-06T04:56:35.179Z,16.11
2022-11-06T04:59:37.869Z,16.01
2022-11-06T05:02:40.129Z,16.13
2022-11-06T05:05:42.794Z,16.14
2022-11-06T05:08:44.851Z,16.22
2022-11-06T05:11:47.188Z,16.44
2022-11-06T05:14:49.339Z,16.50
2022-11-06T05:17:51.259Z,16.53
2022-11-06T05:21:13.907Z,16.73
2022-11-06T05:24:16.051Z,17.02
2022-11-06T05:27:18.094Z,17.19
2022-11-06T05:30:20.104Z,17.28
2022-11-06T05:33:22.359Z,17.35
2022-11-06T05:36:24.754Z,17.12
2022-11-06T05:39:26.789Z,17.46
2022-11-06T05:42:28.907Z,17.43
2022-11-06T05:45:31.095Z,17.46
2022-11-06T05:48:33.212Z,17.57
2022-11-06T05:51:36.068Z,17.58
2022-11-06T05:54:38.064Z,17.56
2022-11-06T05:57:40.097Z,17.47
2022-11-06T06:00:42.242Z,17.51
2022-11-06T06:03:44.404Z,17.63
2022-11-06T06:06:46.820Z,17.54
2022-11-06T06:09:49.350Z,17.42
2022-11-06T06:12:51.568Z,17.67
2022-11-06T06:15:53.762Z,17.98
2022-11-06T06:18:55.910Z,18.14
2022-11-06T06:21:58.132Z,17.54
2022-11-06T06:25:00.464Z,17.34
2022-11-06T06:28:02.819Z,17.09
2022-11-06T06:31:06.761Z,17.00
2022-11-06T06:34:08.859Z,16.77
2022-11-06T06:37:11.030Z,16.86
2022-11-06T06:40:13.309Z,16.88
2022-11-06T06:43:19.795Z,16.84
2022-11-06T06:46:21.850Z,16.78
2022-11-06T06:49:24.128Z,16.75
2022-11-06T06:52:26.129Z,16.71
2022-11-06T06:55:28.117Z,16.68
2022-11-06T06:58:30.518Z,16.75
2022-11-06T07:01:33.835Z,16.72
2022-11-06T07:04:36.024Z,16.87
2022-11-06T07:07:38.855Z,16.83
2022-11-06T07:10:41.104Z,16.91
2022-11-06T07:13:43.137Z,16.99
2022-11-06T07:16:48.559Z,16.98
2022-11-06T07:19:54.705Z,16.88
2022-11-06T07:22:56.907Z,16.75
2022-11-06T07:25:58.936Z,16.63
2022-11-06T07:29:01.182Z,16.48
2022-11-06T07:32:03.389Z,16.45
2022-11-06T07:35:06.076Z,16.43
2022-11-06T07:38:08.113Z,16.53
2022-11-06T07:41:13.109Z,16.49
2022-11-06T07:44:15.200Z,16.50
2022-11-06T07:47:17.206Z,16.47
2022-11-06T07:50:19.447Z,16.86
2022-11-06T07:53:21.565Z,17.24
2022-11-06T07:56:24.041Z,17.69
2022-11-06T07:59:26.030Z,18.19
2022-11-06T08:02:28.048Z,18.43
2022-11-06T08:05:30.222Z,18.62
2022-11-06T08:08:32.467Z,18.69
2022-11-06T08:11:34.783Z,18.68
2022-11-06T08:14:41.268Z,18.79
2022-11-06T08:17:43.585Z,18.93
2022-11-06T08:20:47.901Z,19.00
2022-11-06T08:23:50.265Z,19.38
2022-11-06T08:26:52.480Z,19.72
2022-11-06T08:29:56.704Z,19.94
2022-11-06T08:33:04.695Z,20.03
2022-11-06T08:36:08.315Z,20.08
2022-11-06T08:39:11.533Z,20.08
2022-11-06T08:42:14.198Z,20.04
2022-11-06T08:45:16.300Z,20.07
2022-11-06T08:48:18.704Z,20.14
2022-11-06T08:51:20.789Z,19.99
2022-11-06T08:54:22.863Z,20.02
2022-11-06T08:57:25.517Z,19.85
2022-11-06T09:00:28.116Z,19.94
2022-11-06T09:03:30.272Z,19.85
2022-11-06T09:06:32.456Z,19.83
2022-11-06T09:09:35.550Z,19.78
2022-11-06T09:12:38.470Z,19.84
2022-11-06T09:15:41.815Z,19.83
2022-11-06T09:18:44.232Z,19.79
2022-11-06T09:21:51.869Z,19.69
2022-11-06T09:25:03.818Z,19.67
2022-11-06T09:28:07.005Z,19.64
2022-11-06T09:31:09.695Z,19.64
2022-11-06T09:34:11.744Z,19.48
2022-11-06T09:37:13.962Z,19.48
2022-11-06T09:40:33.491Z,19.47
2022-11-06T09:44:07.812Z,19.45
2022-11-06T09:47:19.320Z,19.30
2022-11-06T09:50:26.870Z,19.39
2022-11-06T09:53:42.731Z,19.38
2022-11-06T09:56:48.285Z,19.30
2022-11-06T09:59:51.491Z,19.31
2022-11-06T10:02:56.823Z,19.30
2022-11-06T10:05:59.665Z,19.31
2022-11-06T10:09:06.286Z,19.37
2022-11-06T10:12:27.798Z,19.31
2022-11-06T10:15:59.227Z,19.38
2022-11-06T10:19:07.364Z,19.24
2022-11-06T10:22:14.925Z,19.39
2022-11-06T10:25:34.652Z,19.29
2022-11-06T10:28:55.340Z,19.35
2022-11-06T10:32:18.250Z,19.26
2022-11-06T10:35:34.396Z,19.27
2022-11-06T10:38:40.652Z,19.27
2022-11-06T10:41:46.352Z,19.28
2022-11-06T10:45:14.559Z,19.29
2022-11-06T10:48:39.996Z,19.21
2022-11-06T10:52:04.510Z,19.25
2022-11-06T10:55:09.492Z,19.54
2022-11-06T10:58:21.667Z,19.98
2022-11-06T11:01:23.997Z,20.39
2022-11-06T11:04:26.065Z,20.53
2022-11-06T11:07:34.629Z,20.74
2022-11-06T11:10:37.265Z,20.82
2022-11-06T11:13:44.403Z,20.90
2022-11-06T11:16:46.419Z,20.91
2022-11-06T11:19:48.491Z,20.76
2022-11-06T11:23:19.131Z,20.93
2022-11-06T11:26:25.980Z,20.95
2022-11-06T11:29:50.653Z,20.38
2022-11-06T11:32:54.392Z,19.95
2022-11-06T11:35:56.633Z,19.72
2022-11-06T11:38:58.684Z,19.59
2022-11-06T11:42:21.964Z,19.52
2022-11-06T11:45:24.034Z,19.49
2022-11-06T11:48:26.103Z,19.42
2022-11-06T11:51:47.952Z,19.34
2022-11-06T11:54:54.591Z,19.24
2022-11-06T11:58:00.426Z,19.30
2022-11-06T12:01:05.259Z,19.21
2022-11-06T12:04:21.910Z,19.33
2022-11-06T12:07:29.568Z,19.22
2022-11-06T12:10:37.198Z,19.13
2022-11-06T12:13:39.212Z,19.23
2022-11-06T12:16:42.282Z,19.19
2022-11-06T12:19:52.026Z,19.18
2022-11-06T12:22:57.782Z,19.15
2022-11-06T12:26:12.163Z,19.13
2022-11-06T12:29:19.625Z,19.10
2022-11-06T12:32:42.126Z,18.99
2022-11-06T12:35:49.690Z,18.91
2022-11-06T12:38:59.728Z,18.73
2022-11-06T12:42:04.444Z,18.81
2022-11-06T12:45:12.515Z,18.75
2022-11-06T12:48:44.602Z,18.76
2022-11-06T12:51:47.847Z,18.67
2022-11-06T12:54:55.605Z,18.71
2022-11-06T12:58:59.077Z,18.59
2022-11-06T13:02:28.011Z,18.50
2022-11-06T13:05:38.463Z,18.38
2022-11-06T13:09:01.043Z,18.42
2022-11-06T13:12:22.398Z,18.37
2022-11-06T13:15:24.580Z,18.36
2022-11-06T13:18:36.053Z,18.32
2022-11-06T13:21:56.360Z,18.32
2022-11-06T13:25:10.492Z,18.36
2022-11-06T13:28:39.635Z,18.35
2022-11-06T13:31:55.365Z,18.48
2022-11-06T13:34:59.912Z,18.53
2022-11-06T13:38:39.077Z,18.34
2022-11-06T13:41:41.655Z,18.25
2022-11-06T13:44:44.014Z,18.11
2022-11-06T13:48:14.061Z,18.39
2022-11-06T13:51:45.537Z,18.81
2022-11-06T13:55:15.402Z,19.29
2022-11-06T13:58:48.269Z,19.77
2022-11-06T14:02:27.941Z,20.12
2022-11-06T14:05:51.519Z,20.53
2022-11-06T14:09:08.626Z,21.00
2022-11-06T14:12:19.560Z,21.33
2022-11-06T14:15:24.240Z,21.58
2022-11-06T14:18:28.433Z,21.46
2022-11-06T14:22:12.733Z,21.52
2022-11-06T14:25:29.490Z,21.49
2022-11-06T14:28:37.205Z,21.42
2022-11-06T14:32:06.816Z,21.23
2022-11-06T14:35:28.786Z,20.95
2022-11-06T14:38:35.956Z,20.90
2022-11-06T14:41:44.161Z,20.78
2022-11-06T14:44:54.625Z,20.60
2022-11-06T14:47:56.998Z,20.30
2022-11-06T14:51:01.740Z,20.13
2022-11-06T14:54:26.235Z,20.02
2022-11-06T14:57:51.210Z,19.88
2022-11-06T15:00:58.921Z,19.70
2022-11-06T15:04:05.557Z,19.67
2022-11-06T15:07:58.248Z,19.30
2022-11-06T15:10:55.795Z,19.30
2022-11-06T15:14:08.873Z,19.22
2022-11-06T15:17:15.999Z,19.06
2022-11-06T15:20:25.954Z,18.94
2022-11-06T15:23:59.110Z,18.83
2022-11-06T15:27:17.150Z,18.85
2022-11-06T15:30:23.486Z,18.76
2022-11-06T15:33:51.571Z,18.75
2022-11-06T15:37:12.895Z,18.66
2022-11-06T15:40:28.122Z,18.52
2022-11-06T15:43:33.240Z,18.43
2022-11-06T15:46:37.001Z,18.43
2022-11-06T15:49:39.177Z,18.40
2022-11-06T15:52:49.703Z,18.34
2022-11-06T15:56:22.033Z,18.34
2022-11-06T15:59:24.097Z,18.17
2022-11-06T16:06:07.615Z,18.10
2022-11-06T16:09:36.601Z,18.00
2022-11-06T16:12:38.873Z,17.81
2022-11-06T16:15:49.929Z,17.76
2022-11-06T16:18:54.289Z,17.75
2022-11-06T16:22:19.485Z,17.74
2022-11-06T16:25:28.433Z,17.78
2022-11-06T16:29:03.413Z,17.79
2022-11-06T16:36:13.958Z,17.63
2022-11-06T16:39:47.629Z,17.58
2022-11-06T16:43:03.000Z,17.72
2022-11-06T16:46:12.805Z,17.92
2022-11-06T16:49:57.808Z,17.98
2022-11-06T16:53:05.274Z,17.97
2022-11-06T16:56:08.856Z,17.95
2022-11-06T16:59:20.257Z,17.84
2022-11-06T17:07:02.896Z,17.83
2022-11-06T17:10:38.106Z,17.79
2022-11-06T17:13:49.945Z,17.73
2022-11-06T17:17:05.607Z,17.65
2022-11-06T17:20:19.082Z,18.21
2022-11-06T17:23:25.481Z,18.27
2022-11-06T17:31:46.600Z,19.61
2022-11-06T17:35:29.467Z,20.27
2022-11-06T17:43:04.230Z,20.54
2022-11-06T17:47:44.048Z,20.61
2022-11-06T17:51:18.361Z,20.03
2022-11-06T17:54:23.729Z,19.81
2022-11-06T18:02:29.800Z,19.12
2022-11-06T18:07:17.737Z,19.32
2022-11-06T18:16:05.520Z,18.59
2022-11-06T18:19:38.069Z,18.23
2022-11-06T18:22:50.580Z,18.19
2022-11-06T18:26:00.182Z,18.63
2022-11-06T18:29:11.562Z,18.55
2022-11-06T18:32:20.729Z,18.28
2022-11-06T18:35:30.035Z,18.27
2022-11-06T18:38:33.791Z,18.26
2022-11-06T18:41:35.952Z,18.35
2022-11-06T18:44:41.438Z,18.33
2022-11-06T18:47:48.910Z,18.29
2022-11-06T18:50:51.994Z,18.19
2022-11-06T18:53:58.895Z,18.28
2022-11-06T18:57:01.125Z,18.11
2022-11-06T19:00:05.239Z,17.91
2022-11-06T19:03:07.440Z,18.14
2022-11-06T19:06:12.306Z,18.02
2022-11-06T19:09:14.476Z,18.02
2022-11-06T19:12:16.769Z,17.93
2022-11-06T19:15:21.854Z,18.24
2022-11-06T19:18:28.752Z,18.22
2022-11-06T19:21:35.983Z,18.23
2022-11-06T19:24:42.017Z,18.24
2022-11-06T19:27:44.007Z,18.11
2022-11-06T19:30:46.263Z,18.19
2022-11-06T19:33:48.282Z,18.36
2022-11-06T19:36:50.359Z,18.32
2022-11-06T19:39:53.541Z,18.20
2022-11-06T19:43:12.658Z,18.02
2022-11-06T19:50:59.692Z,18.21
2022-11-06T19:54:02.475Z,18.05
2022-11-06T19:57:29.372Z,18.03
2022-11-06T20:00:27.379Z,17.94
2022-11-06T20:03:29.426Z,17.89
2022-11-06T20:06:44.230Z,17.81
2022-11-06T20:09:46.694Z,17.81
2022-11-06T20:12:53.075Z,17.72
2022-11-06T20:16:00.625Z,17.64
2022-11-06T20:19:05.633Z,17.76
2022-11-06T20:22:10.865Z,17.81
2022-11-06T20:25:19.327Z,17.65
2022-11-06T20:28:51.662Z,17.63
2022-11-06T20:31:55.465Z,17.47
2022-11-06T20:35:09.734Z,17.56
2022-11-06T20:38:12.513Z,17.60
2022-11-06T20:41:17.489Z,17.51
2022-11-06T20:44:22.565Z,17.52
2022-11-06T20:47:27.273Z,17.45
2022-11-06T20:50:29.404Z,17.46
2022-11-06T20:53:32.373Z,17.54
2022-11-06T20:56:35.181Z,17.62
2022-11-06T20:59:46.617Z,17.51
2022-11-06T21:06:40.877Z,17.56
2022-11-06T21:09:43.494Z,17.62
2022-11-06T21:12:46.392Z,17.73
2022-11-06T21:15:52.964Z,17.56
2022-11-06T21:18:55.221Z,17.70
2022-11-06T21:21:59.484Z,17.65
2022-11-06T21:25:06.254Z,17.65
2022-11-06T21:28:10.303Z,17.67
2022-11-06T21:31:16.002Z,17.48
2022-11-06T21:34:20.500Z,17.57
2022-11-06T21:37:33.066Z,17.46
2022-11-06T21:40:36.145Z,17.39
2022-11-06T21:43:38.571Z,17.59
2022-11-06T21:46:45.251Z,17.55
2022-11-06T21:49:54.186Z,17.56
2022-11-06T21:53:16.423Z,17.60
2022-11-06T21:56:22.170Z,17.50
2022-11-06T21:59:29.558Z,17.52
2022-11-06T22:02:31.720Z,17.47
2022-11-06T22:05:34.168Z,17.59
2022-11-06T22:08:39.572Z,17.55
2022-11-06T22:11:43.810Z,17.58
2022-11-06T22:14:47.449Z,17.41
2022-11-06T22:17:50.030Z,17.32
2022-11-06T22:20:52.536Z,17.32
2022-11-06T22:24:00.943Z,17.29
2022-11-06T22:27:02.960Z,17.21
2022-11-06T22:30:07.040Z,17.35
2022-11-06T22:33:10.820Z,17.35
2022-11-06T22:36:16.429Z,17.35
2022-11-06T22:39:18.477Z,17.20
2022-11-06T22:42:20.626Z,17.18
2022-11-06T22:45:23.146Z,17.09
2022-11-06T22:48:26.666Z,17.13
2022-11-06T22:51:31.310Z,17.20
2022-11-06T22:54:33.498Z,17.11
2022-11-06T22:57:35.905Z,17.14
2022-11-06T23:00:39.787Z,17.05
2022-11-06T23:03:42.446Z,17.18
2022-11-06T23:06:45.741Z,17.29
2022-11-06T23:09:48.000Z,17.24
2022-11-06T23:12:50.196Z,17.21
2022-11-06T23:16:03.338Z,17.30
2022-11-06T23:19:06.402Z,17.17
2022-11-06T23:22:27.404Z,17.26
2022-11-06T23:25:30.777Z,17.18
2022-11-06T23:28:34.940Z,17.15
2022-11-06T23:31:38.600Z,17.00
2022-11-06T23:34:40.725Z,16.97
2022-11-06T23:37:43.298Z,17.06
2022-11-06T23:40:45.368Z,17.02
2022-11-06T23:43:51.839Z,16.96
2022-11-06T23:46:56.227Z,17.01
2022-11-06T23:49:59.832Z,16.88
2022-11-06T23:53:02.359Z,16.85
2022-11-06T23:56:06.926Z,16.89
2022-11-06T23:59:11.691Z,16.93
